Time;durP1;ratioP1;P1;durP2;ratioP2;P2;SDS_P1;SDS_P2;PMS_P1;PMS_P2;Temp;Humidity;BMP_temperature;BMP_pressure;BME280_temperature;BME280_humidity;BME280_pressure;Samples;Min_cycle;Max_cycle;Signal;HPM_P1;HPM_P2
2023/04/13 00:00:10;;;;;;;3.10;3.00;;;;;;;;;;5073603;28;20028;-66
2023/04/13 00:02:37;;;;;;;3.40;3.03;;;;;;;;;;5071172;28;20036;-66
2023/04/13 00:05:09;;;;;;;3.30;3.20;;;;;;;;;;5053119;28;20055;-66
2023/04/13 00:07:38;;;;;;;3.30;3.10;;;;;;;;;;5068380;28;20403;-66
2023/04/13 00:10:07;;;;;;;3.35;3.10;;;;;;;;;;5070210;28;20040;-66
2023/04/13 00:12:34;;;;;;;3.28;3.17;;;;;;;;;;5049473;28;20103;-68
2023/04/13 00:14:59;;;;;;;3.17;3.08;;;;;;;;;;5068933;28;20450;-66
2023/04/13 00:17:26;;;;;;;3.30;3.10;;;;;;;;;;5069850;28;20525;-66
2023/04/13 00:19:52;;;;;;;2.97;2.78;;;;;;;;;;5071591;28;20028;-66
2023/04/13 00:22:18;;;;;;;3.30;3.10;;;;;;;;;;5066437;28;20044;-66
2023/04/13 00:24:44;;;;;;;3.58;3.20;;;;;;;;;;5071392;28;20458;-66
2023/04/13 00:27:10;;;;;;;3.15;2.95;;;;;;;;;;5073406;28;20062;-66
2023/04/13 00:29:37;;;;;;;3.00;2.90;;;;;;;;;;5069744;28;20064;-66
2023/04/13 00:32:03;;;;;;;3.08;2.97;;;;;;;;;;5048613;28;20044;-66
2023/04/13 00:34:29;;;;;;;2.90;2.80;;;;;;;;;;5071451;28;20032;-66
2023/04/13 00:36:58;;;;;;;3.08;2.90;;;;;;;;;;5066368;28;20426;-66
2023/04/13 00:39:26;;;;;;;3.20;3.00;;;;;;;;;;5075639;28;20654;-66
2023/04/13 00:41:53;;;;;;;;;;;;;;;;;;5067690;28;20032;-66
2023/04/13 00:44:18;;;;;;;2.90;2.80;;;;;;;;;;5052594;28;19928;-66
2023/04/13 00:46:46;;;;;;;3.38;3.10;;;;;;;;;;5049825;28;20043;-66
2023/04/13 00:49:14;;;;;;;2.90;2.80;;;;;;;;;;5047181;28;20048;-66
2023/04/13 00:51:41;;;;;;;3.30;3.00;;;;;;;;;;5050383;28;20029;-66
2023/04/13 00:54:07;;;;;;;2.83;2.72;;;;;;;;;;5050203;28;20036;-66
2023/04/13 00:56:33;;;;;;;2.80;2.70;;;;;;;;;;5065989;28;20085;-66
2023/04/13 00:58:58;;;;;;;2.60;2.50;;;;;;;;;;5051218;28;20028;-66
2023/04/13 01:01:24;;;;;;;2.80;2.70;;;;;;;;;;5069139;28;20458;-66
2023/04/13 01:03:52;;;;;;;5.00;3.10;;;;;;;;;;5065883;28;20044;-66
2023/04/13 01:06:25;;;;;;;3.00;2.80;;;;;;;;;;5066163;28;20041;-66
2023/04/13 01:09:14;;;;;;;2.80;2.70;;;;;;;;;;5047403;28;20094;-66
2023/04/13 01:11:47;;;;;;;3.00;2.80;;;;;;;;;;5051095;28;20028;-66
2023/04/13 01:14:18;;;;;;;3.35;3.15;;;;;;;;;;5062196;28;20036;-66
2023/04/13 01:16:55;;;;;;;2.90;2.80;;;;;;;;;;5044954;28;20040;-66
2023/04/13 01:19:58;;;;;;;3.05;2.85;;;;;;;;;;5050727;28;20028;-66
2023/04/13 01:22:34;;;;;;;2.80;2.65;;;;;;;;;;5052814;28;20141;-66
2023/04/13 01:25:21;;;;;;;2.80;2.70;;;;;;;;;;5050659;28;20577;-66
2023/04/13 01:27:51;;;;;;;3.28;2.80;;;;;;;;;;5049940;28;20049;-66
2023/04/13 01:30:24;;;;;;;3.10;2.90;;;;;;;;;;5050655;28;20032;-66
2023/04/13 01:32:54;;;;;;;2.67;2.58;;;;;;;;;;5058438;28;20516;-66
2023/04/13 01:35:21;;;;;;;2.70;2.60;;;;;;;;;;5048892;28;20119;-66
2023/04/13 01:37:51;;;;;;;3.08;2.88;;;;;;;;;;5049941;28;20051;-66
2023/04/13 01:40:20;;;;;;;2.83;2.72;;;;;;;;;;5053085;28;20047;-66
2023/04/13 01:42:51;;;;;;;2.67;2.40;;;;;;;;;;5055021;28;20044;-66
2023/04/13 01:45:26;;;;;;;4.13;2.90;;;;;;;;;;5012461;28;1117913;-67
2023/04/13 01:48:13;;;;;;;2.90;2.70;;;;;;;;;;5047063;28;20116;-67
2023/04/13 01:51:10;;;;;;;2.67;2.58;;;;;;;;;;5045183;28;20059;-66
2023/04/13 01:53:52;;;;;;;3.08;2.63;;;;;;;;;;5048968;28;20045;-67
2023/04/13 01:56:21;;;;;;;3.28;3.08;;;;;;;;;;5050316;28;20044;-67
2023/04/13 01:58:52;;;;;;;3.08;2.88;;;;;;;;;;5046426;28;20040;-66
2023/04/13 02:01:18;;;;;;;;;;;;;;;;;;5052486;28;20064;-66
2023/04/13 02:03:44;;;;;;;2.70;2.60;;;;;;;;;;5051118;28;19943;-66
2023/04/13 02:06:10;;;;;;;2.70;2.60;;;;;;;;;;5051371;28;20038;-67
2023/04/13 02:08:39;;;;;;;3.05;2.92;;;;;;;;;;5044202;28;20032;-67
2023/04/13 02:11:06;;;;;;;3.00;2.90;;;;;;;;;;5054186;28;20067;-66
2023/04/13 02:13:33;;;;;;;3.00;2.80;;;;;;;;;;5049149;28;20036;-66
2023/04/13 02:16:02;;;;;;;2.90;2.70;;;;;;;;;;5053869;28;20462;-66
2023/04/13 02:18:27;;;;;;;2.72;2.50;;;;;;;;;;5049878;28;20036;-66
2023/04/13 02:21:12;;;;;;;4.20;2.85;;;;;;;;;;5050272;28;20064;-67
2023/04/13 02:23:40;;;;;;;3.10;2.90;;;;;;;;;;5061919;28;20036;-66
2023/04/13 02:26:06;;;;;;;3.15;2.95;;;;;;;;;;5046356;28;20064;-66
2023/04/13 02:28:33;;;;;;;2.83;2.70;;;;;;;;;;5050976;28;20064;-66
2023/04/13 02:30:58;;;;;;;3.00;2.80;;;;;;;;;;5066591;28;20095;-66
2023/04/13 02:33:29;;;;;;;2.92;2.75;;;;;;;;;;5051501;28;20111;-66
2023/04/13 02:35:54;;;;;;;2.75;2.65;;;;;;;;;;5046318;28;20117;-65
2023/04/13 02:38:20;;;;;;;3.45;2.75;;;;;;;;;;5048472;28;20079;-67
2023/04/13 02:40:54;;;;;;;;;;;;;;;;;;5044808;28;20036;-65
2023/04/13 02:43:20;;;;;;;3.47;2.90;;;;;;;;;;5066049;28;20031;-67
2023/04/13 02:45:45;;;;;;;3.03;2.92;;;;;;;;;;5042271;28;20140;-66
2023/04/13 02:48:14;;;;;;;3.05;2.92;;;;;;;;;;5044394;28;20036;-67
2023/04/13 02:50:40;;;;;;;2.63;2.53;;;;;;;;;;5047171;28;20029;-67
2023/04/13 02:53:09;;;;;;;3.05;2.90;;;;;;;;;;5048781;28;20515;-67
2023/04/13 02:55:37;;;;;;;2.75;2.65;;;;;;;;;;5047915;28;20111;-67
2023/04/13 02:58:10;;;;;;;3.17;2.97;;;;;;;;;;5049911;28;20036;-67
2023/04/13 03:00:37;;;;;;;4.57;3.28;;;;;;;;;;5048777;28;20032;-67
2023/04/13 03:03:08;;;;;;;3.10;2.70;;;;;;;;;;5049844;28;20592;-67
2023/04/13 03:05:40;;;;;;;2.78;2.58;;;;;;;;;;5047737;28;20025;-68
2023/04/13 03:08:11;;;;;;;3.47;3.03;;;;;;;;;;5049998;28;21299;-67
2023/04/13 03:10:42;;;;;;;2.90;2.80;;;;;;;;;;5047325;28;20048;-67
2023/04/13 03:13:08;;;;;;;3.35;2.72;;;;;;;;;;5067287;28;20484;-67
2023/04/13 03:15:35;;;;;;;3.10;2.80;;;;;;;;;;5049150;28;20031;-67
2023/04/13 03:18:02;;;;;;;3.05;2.80;;;;;;;;;;5047266;28;20033;-67
2023/04/13 03:20:29;;;;;;;2.87;2.67;;;;;;;;;;5047038;28;20516;-66
2023/04/13 03:23:00;;;;;;;2.90;2.80;;;;;;;;;;5051457;28;20115;-67
2023/04/13 03:25:28;;;;;;;2.78;2.67;;;;;;;;;;5035163;28;20045;-66
2023/04/13 03:27:54;;;;;;;2.90;2.70;;;;;;;;;;5064960;28;20029;-66
2023/04/13 03:30:22;;;;;;;2.90;2.70;;;;;;;;;;5048254;28;20056;-66
2023/04/13 03:32:57;;;;;;;3.67;2.92;;;;;;;;;;5048010;28;20036;-66
2023/04/13 03:35:26;;;;;;;2.70;2.50;;;;;;;;;;5047938;28;20035;-66
2023/04/13 03:37:52;;;;;;;3.17;2.88;;;;;;;;;;5046224;28;20306;-66
2023/04/13 03:40:29;;;;;;;2.80;2.60;;;;;;;;;;5048702;28;20035;-66
2023/04/13 03:42:55;;;;;;;2.65;2.55;;;;;;;;;;5054018;28;20463;-66
2023/04/13 03:45:25;;;;;;;2.83;2.60;;;;;;;;;;5046197;28;20036;-66
2023/04/13 03:47:54;;;;;;;2.88;2.60;;;;;;;;;;5048654;28;20081;-66
2023/04/13 03:50:21;;;;;;;3.00;2.80;;;;;;;;;;5048143;28;20419;-66
2023/04/13 03:52:49;;;;;;;2.70;2.58;;;;;;;;;;5048976;28;20046;-67
2023/04/13 03:55:14;;;;;;;4.78;2.85;;;;;;;;;;5047483;28;20037;-67
2023/04/13 03:57:41;;;;;;;2.80;2.60;;;;;;;;;;5048323;28;20032;-67
2023/04/13 04:00:14;;;;;;;5.18;3.08;;;;;;;;;;5047763;28;20043;-67
2023/04/13 04:02:45;;;;;;;2.88;2.55;;;;;;;;;;5045161;28;20059;-67
2023/04/13 04:05:17;;;;;;;2.95;2.75;;;;;;;;;;5045317;28;20176;-67
2023/04/13 04:07:45;;;;;;;2.72;2.60;;;;;;;;;;5051533;28;20101;-67
2023/04/13 04:10:11;;;;;;;2.80;2.63;;;;;;;;;;5047826;28;20044;-67
2023/04/13 04:12:36;;;;;;;3.90;3.00;;;;;;;;;;5064599;28;20116;-66
2023/04/13 04:15:06;;;;;;;2.70;2.50;;;;;;;;;;5049045;28;20119;-67
2023/04/13 04:17:32;;;;;;;3.17;2.92;;;;;;;;;;5048635;28;20541;-67
2023/04/13 04:19:58;;;;;;;2.80;2.60;;;;;;;;;;5048441;28;20037;-67
2023/04/13 04:22:28;;;;;;;2.95;2.30;;;;;;;;;;5061523;28;20039;-67
2023/04/13 04:24:58;;;;;;;2.83;2.60;;;;;;;;;;5046446;28;20025;-66
2023/04/13 04:27:28;;;;;;;3.03;2.83;;;;;;;;;;5046531;28;20044;-66
2023/04/13 04:29:59;;;;;;;6.43;2.88;;;;;;;;;;5043077;28;20040;-65
2023/04/13 04:32:32;;;;;;;6.32;3.03;;;;;;;;;;5045793;28;20056;-65
2023/04/13 04:35:01;;;;;;;3.38;2.95;;;;;;;;;;5052350;28;20036;-64
2023/04/13 04:37:27;;;;;;;4.38;2.60;;;;;;;;;;5049585;28;20047;-66
2023/04/13 04:40:08;;;;;;;3.00;2.70;;;;;;;;;;5051973;28;20050;-65
2023/04/13 04:42:37;;;;;;;2.92;2.72;;;;;;;;;;5051751;28;20032;-66
2023/04/13 04:45:08;;;;;;;4.30;2.88;;;;;;;;;;5041982;28;20423;-65
2023/04/13 04:47:42;;;;;;;6.00;2.70;;;;;;;;;;5044523;28;20036;-65
2023/04/13 04:50:16;;;;;;;4.15;2.78;;;;;;;;;;5052130;28;20471;-65
2023/04/13 04:52:43;;;;;;;2.95;2.75;;;;;;;;;;5052542;28;20520;-65
2023/04/13 04:55:12;;;;;;;3.38;3.00;;;;;;;;;;5054602;28;20068;-65
2023/04/13 04:57:40;;;;;;;5.70;3.10;;;;;;;;;;5048429;28;20498;-64
2023/04/13 05:00:14;;;;;;;5.97;3.10;;;;;;;;;;5050494;28;20116;-65
2023/04/13 05:02:43;;;;;;;3.35;2.88;;;;;;;;;;5052133;28;20029;-65
2023/04/13 05:05:10;;;;;;;3.35;3.05;;;;;;;;;;5050964;28;20024;-66
2023/04/13 05:07:37;;;;;;;3.15;2.90;;;;;;;;;;5051174;28;20028;-65
2023/04/13 05:10:06;;;;;;;10.25;3.30;;;;;;;;;;5051386;28;20059;-66
2023/04/13 05:12:35;;;;;;;3.33;3.13;;;;;;;;;;5044730;28;20119;-64
2023/04/13 05:15:03;;;;;;;6.03;2.90;;;;;;;;;;5062933;28;20098;-65
2023/04/13 05:17:30;;;;;;;5.43;3.00;;;;;;;;;;5053551;28;20124;-66
2023/04/13 05:19:56;;;;;;;4.95;3.00;;;;;;;;;;5053353;28;20458;-66
2023/04/13 05:22:26;;;;;;;3.30;3.10;;;;;;;;;;5051174;28;20048;-66
2023/04/13 05:24:57;;;;;;;3.47;3.17;;;;;;;;;;5047625;28;20392;-66
2023/04/13 05:27:24;;;;;;;3.92;3.10;;;;;;;;;;5050976;28;20135;-67
2023/04/13 05:29:53;;;;;;;5.65;3.20;;;;;;;;;;5051123;28;20025;-66
2023/04/13 05:32:22;;;;;;;5.82;2.97;;;;;;;;;;5032790;28;20036;-66
2023/04/13 05:34:50;;;;;;;3.88;3.22;;;;;;;;;;5054228;28;20062;-66
2023/04/13 05:37:20;;;;;;;3.42;3.00;;;;;;;;;;5051108;28;20700;-66
2023/04/13 05:39:46;;;;;;;3.63;3.00;;;;;;;;;;5069076;28;20040;-65
2023/04/13 05:42:14;;;;;;;5.57;3.75;;;;;;;;;;5044751;28;20592;-66
2023/04/13 05:44:42;;;;;;;5.63;3.88;;;;;;;;;;5048366;28;20542;-66
2023/04/13 05:47:10;;;;;;;5.43;3.38;;;;;;;;;;5050033;28;20060;-65
2023/04/13 05:49:36;;;;;;;3.38;3.10;;;;;;;;;;5051379;28;20075;-65
2023/04/13 05:52:02;;;;;;;3.10;2.90;;;;;;;;;;5044330;28;20568;-65
2023/04/13 05:54:43;;;;;;;3.20;2.42;;;;;;;;;;5068860;28;20669;-65
2023/04/13 05:57:09;;;;;;;3.25;2.80;;;;;;;;;;5067059;28;20042;-65
2023/04/13 05:59:38;;;;;;;4.47;3.25;;;;;;;;;;5050006;28;20036;-66
2023/04/13 06:02:04;;;;;;;6.90;3.40;;;;;;;;;;5051208;28;20036;-66
2023/04/13 06:04:30;;;;;;;3.97;3.10;;;;;;;;;;5047773;28;20036;-66
2023/04/13 06:06:56;;;;;;;3.47;3.00;;;;;;;;;;5054712;28;20125;-66
2023/04/13 06:09:22;;;;;;;3.13;2.90;;;;;;;;;;5070498;28;20032;-66
2023/04/13 06:11:48;;;;;;;3.60;3.30;;;;;;;;;;5064236;28;20108;-66
2023/04/13 06:14:15;;;;;;;6.13;3.10;;;;;;;;;;5048398;28;20115;-66
2023/04/13 06:16:41;;;;;;;4.88;3.17;;;;;;;;;;5050548;28;20040;-66
2023/04/13 06:19:07;;;;;;;3.85;3.22;;;;;;;;;;5066285;28;20470;-66
2023/04/13 06:21:33;;;;;;;8.40;3.30;;;;;;;;;;5046362;28;20048;-66
2023/04/13 06:23:58;;;;;;;5.85;3.33;;;;;;;;;;5049314;28;20044;-66
2023/04/13 06:26:32;;;;;;;5.68;3.00;;;;;;;;;;5049101;28;20038;-66
2023/04/13 06:29:01;;;;;;;3.95;3.10;;;;;;;;;;5052514;28;20032;-66
2023/04/13 06:31:27;;;;;;;4.20;3.10;;;;;;;;;;5050644;28;20044;-66
2023/04/13 06:33:55;;;;;;;4.95;3.30;;;;;;;;;;5047089;28;20037;-66
2023/04/13 06:36:25;;;;;;;3.95;2.65;;;;;;;;;;5050910;28;20025;-66
2023/04/13 06:38:53;;;;;;;4.22;3.08;;;;;;;;;;5043427;28;20033;-65
2023/04/13 06:41:20;;;;;;;5.30;3.10;;;;;;;;;;5052340;28;20086;-66
2023/04/13 06:43:47;;;;;;;4.20;2.88;;;;;;;;;;5033971;28;20040;-65
2023/04/13 06:46:33;;;;;;;6.25;2.90;;;;;;;;;;5060226;28;20058;-66
2023/04/13 06:49:05;;;;;;;5.75;3.15;;;;;;;;;;5049659;28;20063;-65
2023/04/13 06:51:32;;;;;;;3.65;3.10;;;;;;;;;;5049215;28;20121;-66
2023/04/13 06:53:59;;;;;;;7.05;3.10;;;;;;;;;;5052074;28;20048;-66
2023/04/13 06:56:25;;;;;;;3.42;3.08;;;;;;;;;;5047747;28;20036;-66
2023/04/13 06:58:50;;;;;;;3.78;2.70;;;;;;;;;;5053721;28;20028;-66
2023/04/13 07:01:16;;;;;;;2.95;2.75;;;;;;;;;;5050933;28;20411;-65
2023/04/13 07:03:43;;;;;;;3.35;2.90;;;;;;;;;;5053748;28;20032;-66
2023/04/13 07:06:09;;;;;;;5.60;3.25;;;;;;;;;;5047399;28;20046;-66
2023/04/13 07:08:35;;;;;;;4.45;2.92;;;;;;;;;;5050244;28;20036;-65
2023/04/13 07:11:01;;;;;;;4.28;2.75;;;;;;;;;;5049239;28;20086;-66
2023/04/13 07:13:37;;;;;;;2.80;2.60;;;;;;;;;;5064292;28;20024;-66
2023/04/13 07:16:07;;;;;;;3.20;2.75;;;;;;;;;;5048270;28;20044;-66
2023/04/13 07:18:35;;;;;;;2.83;2.70;;;;;;;;;;5060360;28;20051;-66
2023/04/13 07:21:01;;;;;;;6.68;3.10;;;;;;;;;;5049926;28;20543;-66
2023/04/13 07:23:32;;;;;;;3.35;3.10;;;;;;;;;;5047834;28;20032;-66
2023/04/13 07:26:00;;;;;;;4.82;3.10;;;;;;;;;;5047054;28;20033;-66
2023/04/13 07:28:27;;;;;;;4.25;3.50;;;;;;;;;;5051116;28;20036;-66
2023/04/13 07:30:55;;;;;;;4.78;2.95;;;;;;;;;;5049068;28;20060;-66
2023/04/13 07:33:21;;;;;;;3.90;2.70;;;;;;;;;;5047889;28;20060;-66
2023/04/13 07:35:53;;;;;;;3.28;2.80;;;;;;;;;;5049171;28;20029;-65
2023/04/13 07:38:20;;;;;;;4.35;2.90;;;;;;;;;;5062800;28;20029;-66
2023/04/13 07:40:46;;;;;;;4.15;2.88;;;;;;;;;;5047406;28;20028;-66
2023/04/13 07:43:12;;;;;;;3.75;2.90;;;;;;;;;;5050763;28;20043;-66
2023/04/13 07:45:41;;;;;;;5.72;3.00;;;;;;;;;;5050565;28;20586;-66
2023/04/13 07:48:08;;;;;;;4.07;3.00;;;;;;;;;;5048044;28;20499;-66
2023/04/13 07:50:41;;;;;;;4.90;3.10;;;;;;;;;;5049563;28;20036;-66
2023/04/13 07:53:10;;;;;;;7.22;3.10;;;;;;;;;;5050797;28;20797;-66
2023/04/13 07:55:36;;;;;;;9.60;4.00;;;;;;;;;;5049715;28;20039;-66
2023/04/13 07:58:03;;;;;;;6.38;3.75;;;;;;;;;;5050376;28;20461;-66
2023/04/13 08:00:29;;;;;;;3.88;3.20;;;;;;;;;;5046810;28;20515;-66
2023/04/13 08:02:57;;;;;;;7.15;3.03;;;;;;;;;;5046885;28;20040;-65
2023/04/13 08:05:25;;;;;;;5.10;3.42;;;;;;;;;;5057331;28;20032;-66
2023/04/13 08:07:51;;;;;;;3.53;3.17;;;;;;;;;;5047002;28;20535;-67
2023/04/13 08:10:16;;;;;;;7.25;3.20;;;;;;;;;;5052815;28;20441;-66
2023/04/13 08:12:42;;;;;;;6.65;3.45;;;;;;;;;;5048928;28;20040;-67
2023/04/13 08:15:08;;;;;;;4.65;3.25;;;;;;;;;;5076868;28;20131;-66
2023/04/13 08:17:34;;;;;;;4.78;3.80;;;;;;;;;;5050715;28;20310;-67
2023/04/13 08:20:00;;;;;;;3.63;3.30;;;;;;;;;;5053725;28;20028;-66
2023/04/13 08:22:26;;;;;;;6.00;4.00;;;;;;;;;;5053370;28;20062;-67
2023/04/13 08:24:53;;;;;;;7.57;4.05;;;;;;;;;;5057375;28;20032;-67
2023/04/13 08:27:19;;;;;;;5.47;4.00;;;;;;;;;;5050604;28;20476;-67
2023/04/13 08:29:45;;;;;;;5.55;3.72;;;;;;;;;;5057126;28;20071;-66
2023/04/13 08:32:11;;;;;;;7.20;3.78;;;;;;;;;;5069722;28;20047;-67
2023/04/13 08:34:37;;;;;;;9.20;4.25;;;;;;;;;;5052479;28;20319;-67
2023/04/13 08:37:02;;;;;;;6.30;4.25;;;;;;;;;;5052158;28;20075;-67
2023/04/13 08:39:32;;;;;;;3.72;3.28;;;;;;;;;;5055070;28;20038;-66
2023/04/13 08:41:58;;;;;;;5.30;3.33;;;;;;;;;;5048898;28;20033;-67
2023/04/13 08:44:28;;;;;;;7.18;4.03;;;;;;;;;;5047352;28;20054;-67
2023/04/13 08:46:53;;;;;;;6.63;3.65;;;;;;;;;;5054365;28;20116;-67
2023/04/13 08:49:31;;;;;;;5.65;4.00;;;;;;;;;;5068405;28;20041;-67
2023/04/13 08:52:08;;;;;;;6.60;3.72;;;;;;;;;;5048904;28;20037;-67
2023/04/13 08:54:34;;;;;;;6.55;3.50;;;;;;;;;;5051813;28;20036;-67
2023/04/13 08:57:02;;;;;;;5.97;3.50;;;;;;;;;;5054959;28;20439;-67
2023/04/13 08:59:29;;;;;;;8.18;4.07;;;;;;;;;;5049053;28;20315;-67
2023/04/13 09:01:56;;;;;;;5.55;4.07;;;;;;;;;;5066672;28;20111;-66
2023/04/13 09:04:30;;;;;;;5.35;3.90;;;;;;;;;;5053502;28;20036;-67
2023/04/13 09:06:59;;;;;;;7.65;3.90;;;;;;;;;;5048481;28;20036;-67
2023/04/13 09:09:26;;;;;;;7.22;3.72;;;;;;;;;;5051565;28;20059;-67
2023/04/13 09:11:51;;;;;;;6.65;3.90;;;;;;;;;;5053217;28;20068;-67
2023/04/13 09:14:21;;;;;;;8.23;3.20;;;;;;;;;;5069458;28;20060;-66
2023/04/13 09:16:47;;;;;;;7.20;3.22;;;;;;;;;;5072717;28;20430;-67
2023/04/13 09:19:31;;;;;;;7.88;3.60;;;;;;;;;;5044513;28;20040;-67
2023/04/13 09:21:56;;;;;;;5.72;3.72;;;;;;;;;;5067919;28;20461;-67
2023/04/13 09:24:22;;;;;;;8.30;3.25;;;;;;;;;;5071440;28;20111;-67
2023/04/13 09:26:49;;;;;;;6.82;3.25;;;;;;;;;;5068137;28;20040;-67
2023/04/13 09:29:19;;;;;;;7.15;3.55;;;;;;;;;;5051131;28;20040;-67
2023/04/13 09:31:46;;;;;;;4.97;3.50;;;;;;;;;;5073467;28;20480;-67
2023/04/13 09:34:13;;;;;;;6.50;4.00;;;;;;;;;;5070448;28;20470;-67
2023/04/13 09:36:40;;;;;;;4.43;3.60;;;;;;;;;;5062690;28;20040;-67
2023/04/13 09:39:06;;;;;;;8.18;4.30;;;;;;;;;;5061986;28;20078;-67
2023/04/13 09:41:33;;;;;;;4.45;4.07;;;;;;;;;;5067648;28;20040;-67
2023/04/13 09:44:00;;;;;;;4.30;3.70;;;;;;;;;;5056492;28;20032;-67
2023/04/13 09:46:26;;;;;;;7.80;4.20;;;;;;;;;;5068775;28;20029;-67
2023/04/13 09:49:02;;;;;;;5.95;3.88;;;;;;;;;;5067991;28;20027;-68
2023/04/13 09:51:38;;;;;;;5.93;3.83;;;;;;;;;;5071087;28;20043;-67
2023/04/13 09:54:06;;;;;;;5.82;3.78;;;;;;;;;;5067800;28;20074;-67
2023/04/13 09:56:46;;;;;;;6.55;3.58;;;;;;;;;;5063715;28;20025;-67
2023/04/13 09:59:12;;;;;;;;;;;;;;;;;;5070445;28;20036;-67
2023/04/13 10:01:39;;;;;;;6.40;3.58;;;;;;;;;;5069763;28;19945;-66
2023/04/13 10:04:07;;;;;;;7.05;4.10;;;;;;;;;;5067334;28;20043;-67
2023/04/13 10:06:40;;;;;;;6.40;4.25;;;;;;;;;;5069693;28;20063;-66
2023/04/13 10:09:06;;;;;;;6.43;3.95;;;;;;;;;;5066767;28;20039;-67
2023/04/13 10:11:44;;;;;;;5.03;3.53;;;;;;;;;;5071124;28;20037;-67
2023/04/13 10:14:18;;;;;;;7.68;3.90;;;;;;;;;;5068747;28;20496;-67
2023/04/13 10:17:11;;;;;;;3.72;3.42;;;;;;;;;;5067535;28;20043;-67
2023/04/13 10:19:44;;;;;;;5.78;3.70;;;;;;;;;;5065982;28;20069;-66
2023/04/13 10:22:10;;;;;;;4.32;3.88;;;;;;;;;;5046502;28;20036;-67
2023/04/13 10:24:37;;;;;;;5.72;3.53;;;;;;;;;;5067729;28;20068;-67
2023/04/13 10:27:18;;;;;;;5.45;3.65;;;;;;;;;;5071082;28;20031;-67
2023/04/13 10:29:44;;;;;;;7.80;3.72;;;;;;;;;;5062417;28;20511;-67
2023/04/13 10:32:22;;;;;;;7.00;4.43;;;;;;;;;;5066133;28;20032;-67
2023/04/13 10:34:48;;;;;;;5.50;4.25;;;;;;;;;;5072080;28;20028;-66
2023/04/13 10:37:21;;;;;;;6.57;4.03;;;;;;;;;;5065417;28;20194;-67
2023/04/13 10:39:47;;;;;;;5.95;3.85;;;;;;;;;;5060832;28;20025;-67
2023/04/13 10:42:14;;;;;;;9.77;3.80;;;;;;;;;;5068598;28;20078;-66
2023/04/13 10:44:44;;;;;;;7.95;3.88;;;;;;;;;;5049188;28;20373;-66
2023/04/13 10:47:11;;;;;;;4.25;3.55;;;;;;;;;;5059134;28;20066;-67
2023/04/13 10:49:37;;;;;;;9.55;4.40;;;;;;;;;;5067757;28;20028;-66
2023/04/13 10:52:03;;;;;;;5.05;3.47;;;;;;;;;;5069427;28;20086;-68
2023/04/13 10:54:29;;;;;;;6.03;3.88;;;;;;;;;;5070223;28;20028;-67
2023/04/13 10:56:57;;;;;;;5.93;4.03;;;;;;;;;;5063935;28;20490;-67
2023/04/13 10:59:22;;;;;;;6.43;3.80;;;;;;;;;;5069092;28;20180;-67
2023/04/13 11:01:48;;;;;;;4.55;3.65;;;;;;;;;;5068008;28;20056;-68
2023/04/13 11:04:14;;;;;;;5.03;4.03;;;;;;;;;;5063157;28;20117;-67
2023/04/13 11:06:40;;;;;;;6.28;3.80;;;;;;;;;;5070891;28;20393;-67
2023/04/13 11:09:06;;;;;;;6.78;4.05;;;;;;;;;;5070111;28;20051;-67
2023/04/13 11:11:35;;;;;;;7.93;4.00;;;;;;;;;;5063814;28;20077;-67
2023/04/13 11:14:00;;;;;;;8.18;4.13;;;;;;;;;;5063563;28;20043;-68
2023/04/13 11:16:26;;;;;;;6.70;3.75;;;;;;;;;;5067842;28;20033;-68
2023/04/13 11:19:02;;;;;;;4.65;3.60;;;;;;;;;;5065607;28;20029;-68
2023/04/13 11:21:28;;;;;;;4.22;3.80;;;;;;;;;;5069288;28;20143;-67
2023/04/13 11:23:54;;;;;;;8.68;3.85;;;;;;;;;;5063619;28;20071;-67
2023/04/13 11:26:46;;;;;;;4.57;3.67;;;;;;;;;;5063259;28;20060;-67
2023/04/13 11:29:21;;;;;;;5.25;3.92;;;;;;;;;;5059081;28;20138;-67
2023/04/13 11:31:47;;;;;;;8.73;3.70;;;;;;;;;;5067475;28;20032;-68
2023/04/13 11:34:24;;;;;;;5.78;4.03;;;;;;;;;;5062510;28;20093;-67
2023/04/13 11:37:05;;;;;;;4.20;3.90;;;;;;;;;;5067780;28;20304;-67
2023/04/13 11:39:35;;;;;;;5.45;4.07;;;;;;;;;;5065258;28;20044;-68
2023/04/13 11:42:05;;;;;;;5.45;3.85;;;;;;;;;;5062351;28;20098;-67
2023/04/13 11:44:34;;;;;;;4.95;3.55;;;;;;;;;;5064935;28;20097;-67
2023/04/13 11:47:01;;;;;;;3.95;3.50;;;;;;;;;;5067735;28;20212;-67
2023/04/13 11:49:27;;;;;;;7.30;3.60;;;;;;;;;;5062399;28;20559;-67
2023/04/13 11:51:55;;;;;;;7.25;3.95;;;;;;;;;;5071101;28;20040;-67
2023/04/13 11:54:21;;;;;;;5.30;3.78;;;;;;;;;;5067835;28;20056;-67
2023/04/13 11:56:48;;;;;;;6.78;4.30;;;;;;;;;;5065704;28;20036;-67
2023/04/13 11:59:14;;;;;;;9.45;4.13;;;;;;;;;;5072595;28;20457;-67
2023/04/13 12:01:40;;;;;;;6.88;4.40;;;;;;;;;;5070242;28;20032;-67
2023/04/13 12:04:06;;;;;;;9.65;5.22;;;;;;;;;;5067158;28;20135;-67
2023/04/13 12:06:33;;;;;;;7.03;4.68;;;;;;;;;;5068176;28;20273;-67
2023/04/13 12:09:00;;;;;;;9.90;5.20;;;;;;;;;;5071208;28;20546;-66
2023/04/13 12:11:26;;;;;;;10.77;4.93;;;;;;;;;;5067526;28;20387;-67
2023/04/13 12:13:55;;;;;;;6.05;4.70;;;;;;;;;;5066938;28;20024;-66
2023/04/13 12:16:28;;;;;;;6.03;5.00;;;;;;;;;;5071765;28;20032;-66
2023/04/13 12:18:54;;;;;;;6.65;4.28;;;;;;;;;;5078340;28;20167;-66
2023/04/13 12:21:21;;;;;;;8.60;4.45;;;;;;;;;;5076112;28;20043;-66
2023/04/13 12:23:59;;;;;;;7.32;4.88;;;;;;;;;;5078468;28;20589;-66
2023/04/13 12:26:36;;;;;;;5.47;4.90;;;;;;;;;;5078650;28;20028;-66
2023/04/13 12:29:05;;;;;;;8.55;5.35;;;;;;;;;;5078388;28;20088;-66
2023/04/13 12:31:33;;;;;;;7.93;5.20;;;;;;;;;;5073035;28;20036;-66
2023/04/13 12:33:59;;;;;;;6.50;5.43;;;;;;;;;;5080057;28;20028;-66
2023/04/13 12:36:30;;;;;;;9.73;6.55;;;;;;;;;;5078649;28;20537;-66
2023/04/13 12:38:57;;;;;;;6.28;4.90;;;;;;;;;;5078507;28;20450;-66
2023/04/13 12:41:23;;;;;;;11.65;9.82;;;;;;;;;;5075807;28;20048;-67
2023/04/13 12:43:48;;;;;;;7.15;5.28;;;;;;;;;;5079950;28;20468;-66
2023/04/13 12:46:14;;;;;;;7.05;6.30;;;;;;;;;;5079458;28;20463;-66
2023/04/13 12:48:40;;;;;;;5.10;4.60;;;;;;;;;;5075404;28;20462;-66
2023/04/13 12:51:05;;;;;;;5.70;4.70;;;;;;;;;;5077323;28;20552;-65
2023/04/13 12:53:31;;;;;;;7.22;6.28;;;;;;;;;;5078591;28;20531;-65
2023/04/13 12:55:56;;;;;;;4.60;4.20;;;;;;;;;;5078384;28;20042;-65
2023/04/13 12:58:22;;;;;;;6.82;4.75;;;;;;;;;;5072651;28;20039;-67
2023/04/13 13:00:47;;;;;;;5.68;4.57;;;;;;;;;;5078838;28;20336;-66
2023/04/13 13:03:13;;;;;;;4.78;4.20;;;;;;;;;;5078499;28;20684;-67
2023/04/13 13:05:39;;;;;;;4.75;4.00;;;;;;;;;;5073546;28;20492;-66
2023/04/13 13:08:05;;;;;;;4.60;4.20;;;;;;;;;;5079215;28;20487;-66
2023/04/13 13:10:31;;;;;;;6.55;5.75;;;;;;;;;;5078356;28;20123;-67
2023/04/13 13:12:57;;;;;;;7.22;4.63;;;;;;;;;;5078084;28;20096;-66
2023/04/13 13:15:22;;;;;;;7.43;5.68;;;;;;;;;;5068305;28;20039;-66
2023/04/13 13:17:48;;;;;;;7.53;4.30;;;;;;;;;;5067912;28;20043;-65
2023/04/13 13:20:14;;;;;;;5.55;4.30;;;;;;;;;;5066679;28;20083;-66
2023/04/13 13:22:39;;;;;;;21.92;12.88;;;;;;;;;;5063791;28;20507;-66
2023/04/13 13:25:07;;;;;;;8.80;7.00;;;;;;;;;;5063692;28;20063;-66
2023/04/13 13:27:36;;;;;;;8.73;5.45;;;;;;;;;;5066475;28;20064;-66
2023/04/13 13:30:03;;;;;;;5.05;4.35;;;;;;;;;;5066715;28;20111;-66
2023/04/13 13:32:29;;;;;;;8.60;5.10;;;;;;;;;;5066529;28;20549;-66
2023/04/13 13:34:55;;;;;;;5.63;4.25;;;;;;;;;;5064491;28;20522;-65
2023/04/13 13:37:21;;;;;;;10.95;6.47;;;;;;;;;;5068076;28;20127;-66
2023/04/13 13:39:46;;;;;;;5.50;4.78;;;;;;;;;;5066327;28;20090;-66
2023/04/13 13:42:12;;;;;;;5.50;4.40;;;;;;;;;;5066269;28;20048;-65
2023/04/13 13:44:38;;;;;;;6.15;5.28;;;;;;;;;;5069365;28;20033;-66
2023/04/13 13:47:03;;;;;;;4.63;4.18;;;;;;;;;;5066675;28;20043;-66
2023/04/13 13:49:29;;;;;;;9.15;4.45;;;;;;;;;;5045730;28;20064;-66
2023/04/13 13:52:27;;;;;;;8.27;4.82;;;;;;;;;;5049684;28;20692;-66
2023/04/13 13:54:54;;;;;;;11.95;5.00;;;;;;;;;;5041190;28;20039;-66
2023/04/13 13:57:19;;;;;;;5.25;4.70;;;;;;;;;;5063192;28;20045;-66
2023/04/13 13:59:45;;;;;;;6.22;4.60;;;;;;;;;;5069492;28;20052;-67
2023/04/13 14:02:10;;;;;;;5.18;4.55;;;;;;;;;;5068074;28;20101;-66
2023/04/13 14:04:36;;;;;;;7.28;4.85;;;;;;;;;;5064499;28;20037;-66
2023/04/13 14:07:01;;;;;;;7.63;4.60;;;;;;;;;;5069167;28;20060;-65
2023/04/13 14:09:28;;;;;;;5.60;5.20;;;;;;;;;;5068659;28;20418;-65
2023/04/13 14:11:55;;;;;;;7.53;5.00;;;;;;;;;;5059777;28;20518;-65
2023/04/13 14:14:20;;;;;;;5.15;4.85;;;;;;;;;;5064202;28;20036;-64
2023/04/13 14:16:46;;;;;;;6.00;5.40;;;;;;;;;;5068643;28;20389;-65
2023/04/13 14:19:11;;;;;;;5.63;5.22;;;;;;;;;;5066233;28;20069;-65
2023/04/13 14:21:37;;;;;;;5.75;5.25;;;;;;;;;;5063337;28;20127;-65
2023/04/13 14:24:03;;;;;;;11.90;7.35;;;;;;;;;;5062893;28;20025;-65
2023/04/13 14:26:29;;;;;;;6.60;6.00;;;;;;;;;;5039959;28;20128;-66
2023/04/13 14:28:55;;;;;;;6.80;6.20;;;;;;;;;;5068630;28;20121;-65
2023/04/13 14:31:20;;;;;;;7.22;5.80;;;;;;;;;;5064927;28;20040;-65
2023/04/13 14:33:46;;;;;;;6.25;5.55;;;;;;;;;;5066055;28;20043;-66
2023/04/13 14:36:13;;;;;;;5.60;5.20;;;;;;;;;;5067348;28;20073;-65
2023/04/13 14:38:39;;;;;;;12.77;9.23;;;;;;;;;;5068256;28;20040;-66
2023/04/13 14:41:05;;;;;;;9.25;6.10;;;;;;;;;;5054773;28;20040;-66
2023/04/13 14:43:30;;;;;;;5.97;5.50;;;;;;;;;;5064960;28;20055;-65
2023/04/13 14:45:56;;;;;;;5.28;4.88;;;;;;;;;;5067328;28;20090;-66
2023/04/13 14:48:23;;;;;;;6.07;5.38;;;;;;;;;;5062521;28;20066;-66
2023/04/13 14:50:49;;;;;;;7.78;6.78;;;;;;;;;;5065152;28;20040;-66